Time;durP1;ratioP1;P1;durP2;ratioP2;P2;SDS_P1;SDS_P2;PMS_P1;PMS_P2;Temp;Humidity;BMP_temperature;BMP_pressure;BME280_temperature;BME280_humidity;BME280_pressure;Samples;Min_cycle;Max_cycle;Signal;HPM_P1;HPM_P2
2022/04/03 05:00:59;;;;;;;14.30;8.77;;;1.30;99.90;;;;;;5650443;23;21429;-82
2022/04/03 05:03:26;;;;;;;13.95;9.13;;;1.20;99.90;;;;;;4876165;29;20668;-80
2022/04/03 05:05:54;;;;;;;13.80;8.77;;;1.10;99.90;;;;;;4873751;29;20045;-80
2022/04/03 05:08:22;;;;;;;13.90;8.57;;;1.20;99.90;;;;;;4875839;29;20140;-80
2022/04/03 05:10:52;;;;;;;13.77;9.10;;;1.20;99.90;;;;;;4880088;29;20054;-80
2022/04/03 05:13:25;;;;;;;13.95;9.00;;;1.10;99.90;;;;;;4875362;29;20495;-80
2022/04/03 05:15:53;;;;;;;13.48;8.73;;;1.20;99.90;;;;;;4880204;29;20133;-80
2022/04/03 05:18:22;;;;;;;13.75;9.20;;;1.20;99.90;;;;;;4873371;29;20054;-79
2022/04/03 05:20:49;;;;;;;13.48;8.73;;;1.20;99.90;;;;;;4869607;29;20084;-80
2022/04/03 05:23:17;;;;;;;14.00;9.05;;;1.30;99.90;;;;;;4867483;29;20158;-82
2022/04/03 05:25:44;;;;;;;14.90;9.77;;;1.20;99.90;;;;;;4867663;29;20051;-79
2022/04/03 05:28:11;;;;;;;15.38;10.15;;;1.10;99.90;;;;;;4868836;29;20104;-81
2022/04/03 05:30:38;;;;;;;15.50;10.00;;;1.10;99.90;;;;;;4864088;29;20377;-82
2022/04/03 05:33:06;;;;;;;15.23;9.50;;;1.10;99.90;;;;;;4868312;29;20148;-80
2022/04/03 05:35:35;;;;;;;14.63;9.38;;;1.20;99.90;;;;;;4865649;29;20086;-81
2022/04/03 05:40:56;;;;;;;13.07;8.18;;;1.10;99.90;;;;;;4899382;24;20141;-82
2022/04/03 05:43:23;;;;;;;13.25;8.32;;;1.20;99.90;;;;;;4894729;29;20086;-83
2022/04/03 05:45:51;;;;;;;13.23;8.07;;;1.10;99.90;;;;;;4893095;29;20120;-83
2022/04/03 05:48:18;;;;;;;12.18;7.97;;;1.10;99.90;;;;;;4891065;29;20053;-82
2022/04/03 05:50:46;;;;;;;14.93;9.50;;;1.30;99.90;;;;;;4881079;29;20458;-81
2022/04/03 05:53:13;;;;;;;13.45;8.38;;;1.10;99.90;;;;;;4880284;29;20123;-82
2022/04/03 05:55:41;;;;;;;13.55;8.90;;;1.00;99.90;;;;;;4897127;29;20108;-82
2022/04/03 05:58:08;;;;;;;14.45;9.20;;;1.00;99.90;;;;;;4900570;29;20075;-80
2022/04/03 06:00:35;;;;;;;14.75;8.80;;;1.10;99.90;;;;;;4900757;29;20049;-80
2022/04/03 06:03:03;;;;;;;14.05;9.02;;;1.10;99.90;;;;;;4877189;29;20067;-82
2022/04/03 06:05:33;;;;;;;13.80;9.10;;;1.20;99.90;;;;;;4888340;29;20139;-80
2022/04/03 06:08:01;;;;;;;12.57;8.25;;;1.20;99.90;;;;;;4891325;29;20311;-81
2022/04/03 06:10:29;;;;;;;12.45;8.52;;;1.30;99.90;;;;;;4888919;29;20076;-81
2022/04/03 06:12:59;;;;;;;13.68;8.88;;;1.30;99.90;;;;;;4893016;29;20055;-82
2022/04/03 06:15:29;;;;;;;13.55;8.85;;;1.30;99.90;;;;;;4892356;29;20060;-82
2022/04/03 06:17:56;;;;;;;14.07;9.00;;;1.20;99.90;;;;;;4889088;29;20072;-82
2022/04/03 06:20:24;;;;;;;14.15;9.05;;;1.20;99.90;;;;;;4889442;29;20091;-81
2022/04/03 06:22:51;;;;;;;12.45;7.97;;;1.20;99.90;;;;;;4894399;29;20100;-82
2022/04/03 06:25:20;;;;;;;12.20;7.93;;;1.20;99.90;;;;;;4889891;29;20483;-82
2022/04/03 06:27:47;;;;;;;13.77;9.15;;;1.10;99.90;;;;;;4890782;29;20148;-82
2022/04/03 06:30:15;;;;;;;14.13;9.23;;;1.20;99.90;;;;;;4891254;29;20049;-83
2022/04/03 06:32:42;;;;;;;12.82;8.05;;;1.20;99.90;;;;;;4893779;29;20127;-83
2022/04/03 06:35:11;;;;;;;13.15;8.20;;;1.30;99.90;;;;;;4891468;29;20135;-81
2022/04/03 06:37:38;;;;;;;12.75;8.32;;;1.40;99.90;;;;;;4891039;29;20088;-81
2022/04/03 06:40:08;;;;;;;11.20;7.30;;;1.30;99.90;;;;;;4883766;29;20434;-82
2022/04/03 06:42:37;;;;;;;12.35;7.90;;;1.30;99.90;;;;;;4885944;29;20053;-83
2022/04/03 06:45:05;;;;;;;11.95;7.85;;;1.20;99.90;;;;;;4890923;29;20108;-83
2022/04/03 06:47:33;;;;;;;13.10;7.90;;;1.20;99.90;;;;;;4889288;29;20052;-83
2022/04/03 06:50:01;;;;;;;11.38;7.72;;;1.30;99.90;;;;;;4876520;29;20072;-84
2022/04/03 06:52:28;;;;;;;11.40;7.40;;;1.30;99.90;;;;;;4891119;29;20053;-83
2022/04/03 06:54:56;;;;;;;11.73;7.47;;;1.30;99.90;;;;;;4884607;29;20438;-83
2022/04/03 06:57:23;;;;;;;10.80;7.38;;;1.30;99.90;;;;;;4891064;29;20088;-86
2022/04/03 06:59:51;;;;;;;12.23;7.40;;;1.40;99.90;;;;;;4896678;29;20079;-84
2022/04/03 07:02:18;;;;;;;10.07;7.10;;;1.50;99.90;;;;;;4893678;29;20127;-85
2022/04/03 07:04:46;;;;;;;10.88;6.95;;;1.60;99.90;;;;;;4888558;29;20055;-84
2022/04/03 07:07:21;;;;;;;11.95;6.90;;;1.50;99.90;;;;;;4881384;29;20048;-83
2022/04/03 07:09:53;;;;;;;9.82;6.97;;;1.70;99.90;;;;;;4884926;29;20478;-83
2022/04/03 07:12:20;;;;;;;10.57;6.70;;;1.60;99.90;;;;;;4882665;29;20052;-84
2022/04/03 07:14:48;;;;;;;9.88;6.97;;;1.60;99.90;;;;;;4890485;29;20406;-83
2022/04/03 07:17:17;;;;;;;9.95;7.05;;;1.70;99.90;;;;;;4885892;29;20040;-83
2022/04/03 07:19:44;;;;;;;9.77;6.40;;;1.60;99.90;;;;;;4879070;29;20052;-84
2022/04/03 07:22:11;;;;;;;8.98;6.63;;;1.60;99.90;;;;;;4880204;29;20140;-81
2022/04/03 07:24:38;;;;;;;10.70;7.05;;;1.50;99.90;;;;;;4893533;29;20495;-81
2022/04/03 07:27:05;;;;;;;9.40;6.50;;;1.60;99.90;;;;;;4886078;29;20051;-83
2022/04/03 07:29:33;;;;;;;10.60;6.95;;;1.70;99.90;;;;;;4873399;29;20517;-83
2022/04/03 07:32:01;;;;;;;12.60;7.68;;;1.80;99.90;;;;;;4883138;29;20053;-84
2022/04/03 07:34:29;;;;;;;14.55;8.63;;;1.80;99.90;;;;;;4884926;29;20052;-85
2022/04/03 07:36:57;;;;;;;21.17;11.38;;;1.80;99.90;;;;;;4875637;29;20076;-82
2022/04/03 07:39:26;;;;;;;13.70;8.55;;;1.80;99.90;;;;;;4887477;29;20134;-83
2022/04/03 07:41:53;;;;;;;12.90;8.32;;;1.70;99.90;;;;;;4883546;29;20060;-82
2022/04/03 07:44:20;;;;;;;15.30;8.73;;;1.90;99.90;;;;;;4882734;29;20574;-83
2022/04/03 07:46:47;;;;;;;12.02;7.63;;;2.00;99.90;;;;;;4862586;29;20060;-85
2022/04/03 07:49:14;;;;;;;12.35;7.55;;;2.00;99.90;;;;;;4882528;29;20053;-84
2022/04/03 07:51:43;;;;;;;10.60;7.35;;;2.00;99.90;;;;;;4889264;29;20075;-84
2022/04/03 07:54:10;;;;;;;9.73;6.68;;;2.00;99.90;;;;;;4895659;29;20053;-84
2022/04/03 07:56:37;;;;;;;9.43;6.45;;;2.10;99.90;;;;;;4892488;29;20049;-84
2022/04/03 07:59:06;;;;;;;12.55;7.95;;;2.10;99.90;;;;;;4896085;29;20075;-84
2022/04/03 08:01:33;;;;;;;9.77;7.05;;;2.10;99.90;;;;;;4885611;29;20045;-86
2022/04/03 08:04:00;;;;;;;9.35;6.72;;;2.00;99.90;;;;;;4880696;29;20135;-84
2022/04/03 08:06:27;;;;;;;9.10;6.28;;;2.10;99.90;;;;;;4878974;29;20053;-84
2022/04/03 08:08:56;;;;;;;12.10;7.72;;;2.30;99.90;;;;;;4884060;29;20049;-83
2022/04/03 08:11:23;;;;;;;11.60;7.80;;;2.10;99.90;;;;;;4897016;29;20466;-83
2022/04/03 08:13:50;;;;;;;11.15;7.00;;;2.20;99.90;;;;;;4883987;29;20080;-84
2022/04/03 08:16:17;;;;;;;11.30;7.07;;;2.30;99.90;;;;;;4878966;29;20180;-83
2022/04/03 08:18:44;;;;;;;9.52;6.50;;;2.40;99.90;;;;;;4888678;29;20056;-82
2022/04/03 08:21:11;;;;;;;9.07;6.50;;;2.60;99.90;;;;;;4895691;29;20058;-82
2022/04/03 08:23:39;;;;;;;9.23;6.30;;;2.60;99.90;;;;;;4883569;29;20052;-83
2022/04/03 08:26:07;;;;;;;9.68;6.50;;;2.70;99.90;;;;;;4878938;29;20054;-83
2022/04/03 08:28:35;;;;;;;9.27;6.45;;;2.80;99.90;;;;;;4880981;29;20053;-83
2022/04/03 08:31:02;;;;;;;9.20;6.07;;;2.50;99.90;;;;;;4880127;29;20140;-83
2022/04/03 08:33:29;;;;;;;8.77;5.70;;;2.60;99.90;;;;;;4882189;29;20053;-83
2022/04/03 08:35:57;;;;;;;9.35;5.32;;;2.80;99.90;;;;;;4893810;29;20044;-82
2022/04/03 08:38:24;;;;;;;8.80;5.78;;;2.80;99.90;;;;;;4888429;29;20591;-83
2022/04/03 08:40:51;;;;;;;9.63;5.78;;;2.80;99.90;;;;;;4879364;29;20057;-83
2022/04/03 08:43:22;;;;;;;9.18;5.88;;;2.80;99.90;;;;;;4880854;29;20084;-88
2022/04/03 08:45:49;;;;;;;9.18;5.55;;;2.60;99.90;;;;;;4894836;29;20064;-84
2022/04/03 08:48:20;;;;;;;9.88;5.70;;;2.60;99.90;;;;;;4887533;29;20072;-85
2022/04/03 08:50:51;;;;;;;8.85;5.30;;;2.80;99.90;;;;;;4911393;29;20048;-85
2022/04/03 08:53:23;;;;;;;8.43;5.40;;;2.60;99.90;;;;;;4881344;29;20158;-87
2022/04/03 08:55:50;;;;;;;8.65;5.05;;;2.70;99.90;;;;;;4881193;29;20053;-87
2022/04/03 08:58:20;;;;;;;8.05;5.15;;;2.80;99.90;;;;;;4882497;29;20057;-85
2022/04/03 09:00:47;;;;;;;7.60;4.60;;;2.80;99.90;;;;;;4893965;29;20075;-86
2022/04/03 09:03:14;;;;;;;6.70;4.53;;;2.70;99.90;;;;;;4887396;29;20139;-84
2022/04/03 09:05:43;;;;;;;7.10;4.30;;;2.70;99.90;;;;;;4893824;29;20063;-87
2022/04/03 09:08:13;;;;;;;7.85;4.70;;;2.80;99.90;;;;;;4899007;29;20088;-86
2022/04/03 09:10:41;;;;;;;9.02;4.97;;;2.80;99.90;;;;;;4867910;29;20049;-87
2022/04/03 09:13:08;;;;;;;8.88;5.50;;;2.60;99.90;;;;;;4889102;29;20048;-87
2022/04/03 09:15:38;;;;;;;9.25;5.05;;;2.50;99.90;;;;;;4900530;29;20060;-85
2022/04/03 09:18:08;;;;;;;7.45;4.85;;;2.70;99.90;;;;;;4880713;29;20084;-80
2022/04/03 09:20:37;;;;;;;7.43;4.72;;;2.80;99.90;;;;;;4886467;29;20108;-78
2022/04/03 09:23:06;;;;;;;8.18;5.03;;;2.90;99.90;;;;;;4893152;29;20048;-85
2022/04/03 09:25:35;;;;;;;7.75;4.90;;;2.80;99.90;;;;;;4901036;29;20058;-84
2022/04/03 09:28:05;;;;;;;8.15;5.20;;;2.90;99.90;;;;;;4892499;29;20051;-83
2022/04/03 09:30:35;;;;;;;7.40;4.90;;;3.00;99.90;;;;;;4887971;29;20136;-87
2022/04/03 09:33:09;;;;;;;9.23;5.32;;;3.20;99.90;;;;;;4877527;29;20052;-91
2022/04/03 09:35:56;;;;;;;8.90;5.63;;;3.20;99.90;;;;;;4883406;29;20088;-91
2022/04/03 09:38:27;;;;;;;9.55;6.07;;;3.30;99.90;;;;;;4900989;29;20056;-88
2022/04/03 09:40:58;;;;;;;13.07;7.13;;;3.60;99.90;;;;;;4887073;29;20056;-92
2022/04/03 09:43:28;;;;;;;9.75;6.18;;;3.70;99.90;;;;;;4884116;29;20069;-82
2022/04/03 09:45:58;;;;;;;10.77;6.57;;;3.50;99.90;;;;;;4892446;29;20167;-76
2022/04/03 09:48:29;;;;;;;8.27;5.40;;;3.70;99.90;;;;;;4881282;29;20064;-74
2022/04/03 09:51:05;;;;;;;7.38;5.05;;;3.50;99.90;;;;;;4890892;29;20056;-86
2022/04/03 09:53:45;;;;;;;7.32;4.50;;;3.40;99.90;;;;;;4890417;29;20158;-84
2022/04/03 09:56:14;;;;;;;8.98;4.60;;;3.40;99.90;;;;;;4881799;29;20060;-87
2022/04/03 09:59:01;;;;;;;6.68;4.28;;;3.50;99.90;;;;;;4882031;29;20071;-84
2022/04/03 10:01:31;;;;;;;7.93;4.20;;;3.40;99.90;;;;;;4884538;29;20049;-81
2022/04/03 10:04:01;;;;;;;6.43;3.92;;;3.60;99.90;;;;;;4886433;29;20056;-81
2022/04/03 10:06:30;;;;;;;6.55;4.10;;;3.70;99.90;;;;;;4884193;29;20076;-84
2022/04/03 10:08:59;;;;;;;6.25;4.18;;;3.60;99.90;;;;;;4907973;29;20114;-85
2022/04/03 10:11:27;;;;;;;6.50;3.75;;;3.60;99.90;;;;;;4899810;29;20413;-81
2022/04/03 10:13:54;;;;;;;7.35;4.00;;;3.60;99.70;;;;;;4880448;29;20055;-85
2022/04/03 10:16:23;;;;;;;6.22;3.40;;;3.70;98.90;;;;;;4880598;29;20061;-84
2022/04/03 10:18:51;;;;;;;6.28;3.70;;;3.70;98.80;;;;;;4881153;29;20131;-83
2022/04/03 10:21:37;;;;;;;5.55;3.42;;;3.60;98.50;;;;;;4883682;29;20221;-81
2022/04/03 10:24:09;;;;;;;6.18;3.90;;;3.60;98.60;;;;;;4878743;29;20048;-82
2022/04/03 10:26:38;;;;;;;6.53;3.65;;;3.40;98.60;;;;;;4895169;29;20049;-85
2022/04/03 10:29:10;;;;;;;6.63;3.83;;;3.40;99.20;;;;;;4880260;29;20144;-84
2022/04/03 10:31:38;;;;;;;6.38;3.58;;;3.50;99.60;;;;;;4880315;29;20057;-83
2022/04/03 10:34:06;;;;;;;7.57;3.83;;;3.30;99.90;;;;;;4880835;29;20064;-82
2022/04/03 10:36:38;;;;;;;6.65;4.07;;;3.50;99.90;;;;;;4880626;29;20063;-82
2022/04/03 10:39:08;;;;;;;10.00;5.57;;;3.60;99.90;;;;;;4880425;29;20144;-83
2022/04/03 10:41:37;;;;;;;9.05;4.18;;;3.50;99.60;;;;;;4880797;29;20618;-82
2022/04/03 10:44:16;;;;;;;6.80;3.72;;;3.50;98.80;;;;;;4880828;29;20153;-83
2022/04/03 10:47:18;;;;;;;6.47;3.58;;;3.60;99.70;;;;;;4881041;29;20143;-82
2022/04/03 10:49:50;;;;;;;5.88;3.40;;;3.50;99.50;;;;;;4880697;29;20139;-83
2022/04/03 10:52:58;;;;;;;6.63;3.72;;;3.30;99.40;;;;;;4881005;29;20059;-83
2022/04/03 10:55:30;;;;;;;5.97;3.90;;;3.30;99.60;;;;;;4880794;29;20137;-83
2022/04/03 10:58:03;;;;;;;6.43;3.70;;;3.40;98.80;;;;;;4880308;29;20406;-83
2022/04/03 11:00:33;;;;;;;5.72;3.50;;;3.60;99.90;;;;;;4864327;29;20140;-84
2022/04/03 11:03:02;;;;;;;7.15;3.63;;;3.70;99.90;;;;;;4880363;29;20590;-84
2022/04/03 11:05:43;;;;;;;6.20;3.50;;;3.70;99.80;;;;;;4880245;29;20049;-81
2022/04/03 11:08:44;;;;;;;5.20;3.00;;;3.30;99.20;;;;;;4880290;29;20057;-83
2022/04/03 11:11:11;;;;;;;5.65;3.00;;;3.30;99.90;;;;;;4880298;29;20502;-81
2022/04/03 11:13:40;;;;;;;6.22;3.17;;;3.20;99.60;;;;;;4880043;29;20060;-83
2022/04/03 11:16:09;;;;;;;5.72;3.35;;;3.20;98.00;;;;;;4879985;29;20059;-83
2022/04/03 11:18:39;;;;;;;6.03;3.05;;;3.40;98.60;;;;;;4879993;29;20053;-83
2022/04/03 11:21:10;;;;;;;6.10;3.63;;;3.50;99.00;;;;;;4880072;29;20068;-83
2022/04/03 11:23:43;;;;;;;6.18;3.47;;;3.20;99.40;;;;;;4880155;29;20117;-84
2022/04/03 11:26:10;;;;;;;7.22;3.47;;;3.40;98.80;;;;;;4880184;29;20080;-84
2022/04/03 11:28:37;;;;;;;6.00;3.60;;;3.40;98.10;;;;;;4878948;29;20053;-82
2022/04/03 11:31:07;;;;;;;5.93;3.22;;;3.20;99.40;;;;;;4879591;29;20590;-82
2022/04/03 11:33:35;;;;;;;5.35;3.05;;;3.20;99.60;;;;;;4879577;29;20052;-84
2022/04/03 11:36:07;;;;;;;6.50;3.20;;;3.10;99.50;;;;;;4879752;29;20143;-83
2022/04/03 11:38:36;;;;;;;8.10;3.40;;;3.10;99.90;;;;;;4879694;29;20060;-82
2022/04/03 11:41:05;;;;;;;5.70;3.50;;;3.10;99.90;;;;;;4879737;29;20085;-84
2022/04/03 11:43:33;;;;;;;5.45;3.20;;;3.40;99.90;;;;;;4879417;29;20045;-82
2022/04/03 11:46:02;;;;;;;6.53;3.20;;;3.30;99.30;;;;;;4879462;29;20049;-83
2022/04/03 11:48:32;;;;;;;6.22;3.50;;;3.50;99.30;;;;;;4879634;29;20550;-83
2022/04/03 11:51:11;;;;;;;7.65;3.60;;;3.50;98.90;;;;;;4879881;29;20136;-82
2022/04/03 11:53:42;;;;;;;5.53;3.30;;;3.70;97.20;;;;;;4879640;29;20053;-82
2022/04/03 11:56:13;;;;;;;6.28;3.47;;;3.70;96.90;;;;;;4879143;29;20132;-83
2022/04/03 11:58:44;;;;;;;6.35;3.22;;;3.70;96.30;;;;;;4879696;29;20055;-83
2022/04/03 12:01:12;;;;;;;5.10;2.90;;;3.70;96.50;;;;;;4879469;29;20060;-82
2022/04/03 12:03:40;;;;;;;5.72;3.42;;;4.00;96.50;;;;;;4879584;29;20128;-82
2022/04/03 12:06:12;;;;;;;4.78;2.70;;;4.20;95.60;;;;;;4879491;29;20052;-82
2022/04/03 12:08:40;;;;;;;6.50;3.17;;;3.80;93.10;;;;;;4879415;29;20136;-83
2022/04/03 12:11:21;;;;;;;5.47;3.00;;;4.00;93.50;;;;;;4879206;29;20053;-82
2022/04/03 12:13:48;;;;;;;5.45;2.80;;;4.20;94.80;;;;;;4879479;29;20044;-82
2022/04/03 12:16:22;;;;;;;8.63;4.78;;;4.30;94.20;;;;;;4879346;29;20064;-83
2022/04/03 12:18:53;;;;;;;5.40;3.30;;;4.40;93.90;;;;;;4879258;29;20558;-83
2022/04/03 12:21:21;;;;;;;5.28;3.08;;;4.50;95.60;;;;;;4879021;29;20139;-84
2022/04/03 12:24:09;;;;;;;4.45;2.63;;;4.70;96.60;;;;;;4879274;29;20139;-82
2022/04/03 12:26:38;;;;;;;4.82;2.70;;;4.90;95.20;;;;;;4863843;29;20063;-82
2022/04/03 12:29:08;;;;;;;4.85;3.03;;;5.20;94.90;;;;;;4879193;29;20063;-81
2022/04/03 12:31:37;;;;;;;7.13;3.13;;;5.40;93.80;;;;;;4879189;29;20064;-82
2022/04/03 12:34:12;;;;;;;5.18;2.78;;;5.40;92.00;;;;;;4879128;29;20064;-81
2022/04/03 12:36:45;;;;;;;5.63;3.30;;;5.20;93.10;;;;;;4879379;29;20049;-83
2022/04/03 12:39:40;;;;;;;7.35;3.53;;;5.50;93.00;;;;;;4879462;29;20065;-83
2022/04/03 12:42:28;;;;;;;6.75;3.47;;;5.90;91.80;;;;;;4883159;29;20410;-82
2022/04/03 12:45:05;;;;;;;5.90;2.75;;;6.60;91.20;;;;;;4883053;29;20053;-80
2022/04/03 12:47:38;;;;;;;5.10;2.72;;;6.80;90.10;;;;;;4882932;29;20053;-82
2022/04/03 12:50:23;;;;;;;5.55;2.90;;;6.40;87.00;;;;;;4883109;29;20094;-80
2022/04/03 12:53:00;;;;;;;4.68;2.50;;;7.00;86.30;;;;;;4882775;29;20475;-81
2022/04/03 12:55:36;;;;;;;5.00;2.65;;;7.40;83.90;;;;;;4883034;29;20612;-81
2022/04/03 12:58:29;;;;;;;5.43;3.00;;;7.10;83.20;;;;;;4882770;29;20053;-81
2022/04/03 13:01:09;;;;;;;5.05;2.47;;;6.10;81.10;;;;;;4882790;29;20068;-82
2022/04/03 13:03:39;;;;;;;5.07;2.50;;;6.00;82.30;;;;;;4882979;29;20064;-82
2022/04/03 13:06:09;;;;;;;6.45;2.88;;;5.80;81.20;;;;;;4882765;29;20057;-82
2022/04/03 13:08:50;;;;;;;4.88;2.60;;;5.60;86.00;;;;;;4882470;29;20053;-82
2022/04/03 13:11:29;;;;;;;4.45;2.90;;;5.20;84.20;;;;;;4882699;29;20121;-83
2022/04/03 13:14:17;;;;;;;4.88;2.60;;;5.10;87.00;;;;;;4882751;29;20084;-83
2022/04/03 13:16:45;;;;;;;6.13;2.92;;;4.90;90.20;;;;;;4882457;29;20049;-83
2022/04/03 13:19:13;;;;;;;4.95;2.80;;;4.80;90.30;;;;;;4882042;29;20495;-82
2022/04/03 13:21:41;;;;;;;6.47;2.47;;;4.90;90.10;;;;;;4882244;29;20053;-82
2022/04/03 13:24:09;;;;;;;5.30;2.80;;;5.00;90.10;;;;;;4882122;29;20100;-82
2022/04/03 13:26:36;;;;;;;5.47;2.60;;;4.80;86.70;;;;;;4882357;29;20062;-83
2022/04/03 13:29:06;;;;;;;5.07;2.80;;;4.60;86.40;;;;;;4882255;29;20470;-82
2022/04/03 13:31:34;;;;;;;4.80;3.03;;;4.40;87.40;;;;;;4882172;29;20064;-83
2022/04/03 13:34:01;;;;;;;4.80;2.80;;;4.00;90.00;;;;;;4882290;29;20108;-82
2022/04/03 13:36:28;;;;;;;7.28;3.28;;;4.20;88.30;;;;;;4881845;29;20053;-83
2022/04/03 13:38:55;;;;;;;5.00;2.70;;;4.00;90.90;;;;;;4881972;29;20053;-83
2022/04/03 13:41:23;;;;;;;5.85;2.90;;;4.00;92.10;;;;;;4881908;29;20053;-81
2022/04/03 13:43:50;;;;;;;6.80;3.33;;;3.80;93.80;;;;;;4881698;29;20139;-83
2022/04/03 13:46:19;;;;;;;6.30;3.30;;;3.40;94.60;;;;;;4881691;29;20063;-82
2022/04/03 13:48:46;;;;;;;5.82;3.42;;;3.30;96.90;;;;;;4881637;29;20140;-84
2022/04/03 13:51:15;;;;;;;6.38;3.45;;;3.30;96.00;;;;;;4881087;29;20052;-83
2022/04/03 13:53:44;;;;;;;5.53;3.13;;;3.10;97.40;;;;;;4881871;29;20112;-83
2022/04/03 13:56:12;;;;;;;8.93;3.60;;;3.00;97.60;;;;;;4881446;29;20092;-83
2022/04/03 13:58:39;;;;;;;7.35;3.92;;;3.00;97.30;;;;;;4881570;29;20045;-83
2022/04/03 14:01:08;;;;;;;9.15;4.50;;;3.00;99.20;;;;;;4881320;29;20060;-84
2022/04/03 14:03:37;;;;;;;8.23;4.70;;;3.00;99.00;;;;;;4881358;29;20060;-83
2022/04/03 14:06:05;;;;;;;7.22;4.18;;;2.90;99.90;;;;;;4881520;29;20140;-82
2022/04/03 14:08:33;;;;;;;7.00;4.18;;;2.80;99.70;;;;;;4881305;29;20060;-83
2022/04/03 14:11:01;;;;;;;7.72;4.50;;;2.90;99.80;;;;;;4881404;29;20061;-84
2022/04/03 14:13:30;;;;;;;6.97;4.18;;;3.10;99.90;;;;;;4881326;29;20049;-83
2022/04/03 14:15:59;;;;;;;8.10;4.00;;;2.90;99.70;;;;;;4881216;29;20491;-83
2022/04/03 14:18:26;;;;;;;6.13;3.72;;;3.00;99.10;;;;;;4881079;29;20105;-82
2022/04/03 14:20:56;;;;;;;6.97;3.50;;;3.00;99.20;;;;;;4881000;29;20152;-82
2022/04/03 14:23:26;;;;;;;6.63;3.28;;;3.40;99.00;;;;;;4881108;29;20447;-83
2022/04/03 14:25:54;;;;;;;5.85;3.50;;;3.70;98.00;;;;;;4881033;29;20506;-83
2022/04/03 14:28:21;;;;;;;6.50;3.72;;;3.80;98.40;;;;;;4880976;29;20444;-83
2022/04/03 14:30:48;;;;;;;7.22;3.47;;;3.90;97.30;;;;;;4880899;29;20136;-84
2022/04/03 14:33:15;;;;;;;5.70;3.47;;;4.00;97.10;;;;;;4880808;29;20403;-83
2022/04/03 14:35:42;;;;;;;7.30;3.85;;;3.90;96.80;;;;;;4880796;29;20141;-84
2022/04/03 14:38:11;;;;;;;6.75;3.50;;;3.70;96.50;;;;;;4880903;29;20048;-83
2022/04/03 14:40:38;;;;;;;5.75;3.50;;;3.30;96.00;;;;;;4880534;29;20464;-83
2022/04/03 14:43:05;;;;;;;7.18;3.45;;;3.40;96.30;;;;;;4880472;29;20050;-82
2022/04/03 14:45:32;;;;;;;7.35;3.50;;;3.60;96.30;;;;;;4880818;29;20135;-82
2022/04/03 14:48:00;;;;;;;4.95;3.03;;;3.90;95.60;;;;;;4880638;29;20061;-84
2022/04/03 14:50:29;;;;;;;6.10;3.15;;;4.00;95.50;;;;;;4880505;29;20502;-83
2022/04/03 14:52:56;;;;;;;6.60;3.65;;;4.10;95.20;;;;;;4880317;29;20521;-82
2022/04/03 14:55:26;;;;;;;6.22;3.42;;;3.90;95.60;;;;;;4880535;29;20136;-82
2022/04/03 14:57:53;;;;;;;5.30;3.28;;;4.00;96.00;;;;;;4880626;29;20057;-83
2022/04/03 15:00:20;;;;;;;7.95;3.30;;;4.00;95.40;;;;;;4880137;29;20055;-82
2022/04/03 15:02:47;;;;;;;4.75;2.65;;;4.10;96.60;;;;;;4880395;29;20053;-83
2022/04/03 15:05:14;;;;;;;5.63;3.17;;;4.00;94.50;;;;;;4880180;29;20053;-82
2022/04/03 15:07:42;;;;;;;4.68;2.90;;;4.10;94.30;;;;;;4880040;29;20048;-83
2022/04/03 15:10:10;;;;;;;6.82;3.45;;;4.00;94.70;;;;;;4879899;29;20084;-82
2022/04/03 15:12:39;;;;;;;7.63;3.65;;;3.90;95.00;;;;;;4880168;29;20495;-81
2022/04/03 15:15:06;;;;;;;5.13;3.00;;;3.70;94.90;;;;;;4880309;29;20059;-82
2022/04/03 15:17:33;;;;;;;5.45;3.17;;;3.80;96.20;;;;;;4880039;29;20258;-83
2022/04/03 15:20:00;;;;;;;6.30;3.28;;;4.10;95.90;;;;;;4879849;29;20138;-83
2022/04/03 15:22:27;;;;;;;4.95;3.00;;;4.10;96.10;;;;;;4879947;29;20056;-82
2022/04/03 15:24:54;;;;;;;6.35;3.63;;;4.10;97.20;;;;;;4879828;29;20067;-83
2022/04/03 15:27:22;;;;;;;5.63;3.20;;;4.20;96.70;;;;;;4879720;29;20561;-83
2022/04/03 15:29:54;;;;;;;5.75;3.08;;;4.30;96.10;;;;;;4879784;29;20056;-82
2022/04/03 15:32:22;;;;;;;5.93;3.42;;;4.30;96.20;;;;;;4879792;29;20132;-82
2022/04/03 15:34:49;;;;;;;6.80;3.92;;;4.20;96.00;;;;;;4880026;29;20064;-83
2022/04/03 15:37:19;;;;;;;5.95;3.38;;;4.30;96.10;;;;;;4879475;29;20049;-83
2022/04/03 15:39:49;;;;;;;5.75;3.33;;;4.30;96.30;;;;;;4879701;29;20057;-82
2022/04/03 15:42:16;;;;;;;5.63;3.20;;;4.40;96.10;;;;;;4879820;29;20067;-83
2022/04/03 15:44:43;;;;;;;6.05;3.60;;;4.60;95.80;;;;;;4879618;29;20099;-83
2022/04/03 15:47:12;;;;;;;5.72;3.40;;;4.60;95.00;;;;;;4880143;29;20522;-83
2022/04/03 15:49:40;;;;;;;5.88;3.25;;;4.50;94.20;;;;;;4879531;29;20064;-81
2022/04/03 15:52:08;;;;;;;5.35;3.33;;;4.40;94.00;;;;;;4879684;29;20514;-83
2022/04/03 15:54:35;;;;;;;6.82;3.38;;;4.50;94.40;;;;;;4879703;29;20127;-83
2022/04/03 15:57:03;;;;;;;5.43;3.58;;;4.40;93.70;;;;;;4884511;29;20052;-82
2022/04/03 15:59:30;;;;;;;6.40;3.75;;;4.30;94.50;;;;;;4898171;29;20055;-82
2022/04/03 16:01:57;;;;;;;5.80;3.47;;;4.20;95.40;;;;;;4898012;29;20060;-80
2022/04/03 16:04:25;;;;;;;6.68;3.60;;;4.30;95.60;;;;;;4898060;29;20147;-81
2022/04/03 16:06:52;;;;;;;7.30;3.63;;;4.20;95.50;;;;;;4898128;29;20135;-83
2022/04/03 16:09:19;;;;;;;8.35;3.50;;;4.10;95.80;;;;;;4898287;29;20059;-82
2022/04/03 16:11:46;;;;;;;5.72;3.40;;;4.20;96.20;;;;;;4897861;29;20079;-83
2022/04/03 16:14:13;;;;;;;7.30;4.03;;;4.20;96.40;;;;;;4897306;29;20048;-83
2022/04/03 16:16:41;;;;;;;6.72;3.83;;;4.10;95.70;;;;;;4898045;29;20136;-82
2022/04/03 16:19:09;;;;;;;7.05;4.00;;;4.10;96.30;;;;;;4898055;29;20052;-82
2022/04/03 16:21:38;;;;;;;12.25;5.50;;;4.10;96.00;;;;;;4897612;29;20056;-82
2022/04/03 16:24:08;;;;;;;8.32;5.15;;;4.10;96.20;;;;;;4897636;29;20132;-83
2022/04/03 16:26:35;;;;;;;9.07;4.68;;;4.20;96.20;;;;;;4890924;29;20475;-83
2022/04/03 16:29:02;;;;;;;8.23;4.07;;;4.00;96.20;;;;;;4878817;29;20059;-79
2022/04/03 16:31:29;;;;;;;8.48;3.92;;;4.00;97.10;;;;;;4878719;29;20066;-78
2022/04/03 16:33:57;;;;;;;6.45;3.95;;;4.10;99.60;;;;;;4879801;29;20140;-77
2022/04/03 16:36:28;;;;;;;6.97;3.90;;;4.20;97.80;;;;;;4879248;29;20053;-84
2022/04/03 16:38:58;;;;;;;6.75;3.60;;;4.20;96.90;;;;;;4877604;29;20415;-84
2022/04/03 16:41:27;;;;;;;6.32;4.05;;;4.20;96.90;;;;;;4882408;29;20140;-83
2022/04/03 16:43:56;;;;;;;6.82;3.72;;;4.20;97.50;;;;;;4879535;29;20049;-83
2022/04/03 16:46:23;;;;;;;7.93;4.18;;;4.10;97.50;;;;;;4878773;29;20049;-84
2022/04/03 16:48:50;;;;;;;7.47;4.32;;;3.90;97.40;;;;;;4880018;29;20409;-81
2022/04/03 16:51:17;;;;;;;7.40;4.00;;;3.80;98.30;;;;;;4886529;29;20140;-81
2022/04/03 16:53:44;;;;;;;7.65;4.30;;;3.90;98.20;;;;;;4864351;29;20505;-82
2022/04/03 16:56:14;;;;;;;6.72;3.90;;;3.80;98.60;;;;;;4888717;29;20049;-84
2022/04/03 16:58:41;;;;;;;6.75;4.32;;;3.80;99.30;;;;;;4886329;29;20122;-85
2022/04/03 17:01:08;;;;;;;6.43;4.20;;;3.50;99.90;;;;;;4885426;29;20136;-88
2022/04/03 17:03:36;;;;;;;7.28;4.60;;;3.60;99.90;;;;;;4884237;29;20131;-83
2022/04/03 17:06:03;;;;;;;9.07;4.32;;;3.40;99.60;;;;;;4892899;29;20080;-83
2022/04/03 17:08:31;;;;;;;7.82;4.20;;;3.40;99.90;;;;;;4883824;29;20124;-84
2022/04/03 17:10:59;;;;;;;6.22;4.00;;;3.40;99.90;;;;;;4877300;29;20101;-86
2022/04/03 17:13:30;;;;;;;8.35;4.45;;;3.50;99.90;;;;;;4885307;29;20102;-86
2022/04/03 17:15:58;;;;;;;7.07;4.20;;;3.50;99.90;;;;;;4890788;29;20064;-81
2022/04/03 17:18:25;;;;;;;8.63;4.25;;;3.60;99.90;;;;;;4890866;29;20052;-82
2022/04/03 17:20:52;;;;;;;7.38;3.85;;;3.50;99.90;;;;;;4896404;29;20073;-83
2022/04/03 17:23:19;;;;;;;7.38;3.88;;;3.60;99.90;;;;;;4877460;29;20059;-83
2022/04/03 17:25:52;;;;;;;5.43;3.30;;;3.70;99.70;;;;;;4882760;29;20139;-91
2022/04/03 17:28:20;;;;;;;6.22;3.67;;;3.80;99.30;;;;;;4894254;29;20052;-93
2022/04/03 17:30:49;;;;;;;7.35;4.10;;;3.80;99.20;;;;;;4889053;29;20068;-92
2022/04/03 17:33:18;;;;;;;8.15;4.07;;;3.90;99.20;;;;;;4890355;29;20080;-93
2022/04/03 17:35:45;;;;;;;8.25;4.43;;;3.80;99.30;;;;;;4888436;29;20048;-93
2022/04/03 17:38:12;;;;;;;6.10;3.88;;;3.70;99.90;;;;;;4883052;29;20048;-90
2022/04/03 17:40:39;;;;;;;6.07;3.47;;;3.60;99.90;;;;;;4867510;29;20139;-88
2022/04/03 17:43:07;;;;;;;5.43;3.45;;;3.60;99.90;;;;;;4888350;29;20059;-88
2022/04/03 17:45:35;;;;;;;6.38;3.95;;;3.50;99.90;;;;;;4898879;29;20453;-94
2022/04/03 17:48:04;;;;;;;7.70;4.50;;;3.30;99.90;;;;;;4898533;29;20463;-81
2022/04/03 17:50:31;;;;;;;6.88;3.72;;;3.30;99.90;;;;;;4881784;29;20130;-81
2022/04/03 17:53:00;;;;;;;6.82;3.70;;;3.30;99.90;;;;;;4882179;29;20049;-82
2022/04/03 17:55:27;;;;;;;6.35;4.15;;;3.40;99.90;;;;;;4893900;29;20089;-81
2022/04/03 17:57:55;;;;;;;6.75;4.25;;;3.20;99.90;;;;;;4878094;29;20057;-81
2022/04/03 18:00:23;;;;;;;6.53;4.20;;;3.30;99.90;;;;;;4881552;29;20491;-85
2022/04/03 18:02:50;;;;;;;7.65;4.10;;;3.30;99.90;;;;;;4888155;29;20060;-88
2022/04/03 18:05:19;;;;;;;6.40;3.67;;;3.20;99.90;;;;;;4888129;29;20057;-91
2022/04/03 18:07:47;;;;;;;5.97;3.78;;;3.20;99.90;;;;;;4884463;29;20147;-86
2022/04/03 18:10:15;;;;;;;6.65;4.00;;;3.20;99.90;;;;;;4888915;29;20093;-85